sensor_id;sensor_type;location;lat;lon;timestamp;P1;durP1;ratioP1;P2;durP2;ratioP2
18732;SDS011;9495;51.210;2.934;2024-01-30T00:02:27;23.00;;;14.17;;
18732;SDS011;9495;51.210;2.934;2024-01-30T00:04:56;19.50;;;14.60;;
18732;SDS011;9495;51.210;2.934;2024-01-30T00:07:24;19.77;;;14.80;;
18732;SDS011;9495;51.210;2.934;2024-01-30T00:09:53;18.17;;;14.27;;
18732;SDS011;9495;51.210;2.934;2024-01-30T00:12:22;19.80;;;13.07;;
18732;SDS011;9495;51.210;2.934;2024-01-30T00:14:52;21.70;;;14.10;;
18732;SDS011;9495;51.210;2.934;2024-01-30T00:17:21;16.60;;;13.57;;
18732;SDS011;9495;51.210;2.934;2024-01-30T00:19:51;17.07;;;14.13;;
18732;SDS011;9495;51.210;2.934;2024-01-30T00:22:20;18.63;;;13.83;;
18732;SDS011;9495;51.210;2.934;2024-01-30T00:24:49;19.80;;;13.63;;
18732;SDS011;9495;51.210;2.934;2024-01-30T00:27:18;15.60;;;13.57;;
18732;SDS011;9495;51.210;2.934;2024-01-30T00:29:46;16.83;;;13.13;;
18732;SDS011;9495;51.210;2.934;2024-01-30T00:32:16;17.97;;;12.47;;
18732;SDS011;9495;51.210;2.934;2024-01-30T00:34:46;20.30;;;12.60;;
18732;SDS011;9495;51.210;2.934;2024-01-30T00:37:14;16.07;;;12.97;;
18732;SDS011;9495;51.210;2.934;2024-01-30T00:39:43;17.00;;;13.20;;
18732;SDS011;9495;51.210;2.934;2024-01-30T00:42:12;17.73;;;13.20;;
18732;SDS011;9495;51.210;2.934;2024-01-30T00:44:40;14.67;;;12.73;;
18732;SDS011;9495;51.210;2.934;2024-01-30T00:47:09;16.47;;;11.83;;
18732;SDS011;9495;51.210;2.934;2024-01-30T00:49:39;18.07;;;11.37;;
18732;SDS011;9495;51.210;2.934;2024-01-30T00:52:08;16.90;;;12.07;;
18732;SDS011;9495;51.210;2.934;2024-01-30T00:54:38;13.57;;;12.00;;
18732;SDS011;9495;51.210;2.934;2024-01-30T00:57:07;16.13;;;13.00;;
18732;SDS011;9495;51.210;2.934;2024-01-30T00:59:36;17.40;;;12.37;;
18732;SDS011;9495;51.210;2.934;2024-01-30T01:02:04;15.83;;;11.97;;
18732;SDS011;9495;51.210;2.934;2024-01-30T01:04:33;16.03;;;12.43;;
18732;SDS011;9495;51.210;2.934;2024-01-30T01:07:03;17.13;;;12.53;;
18732;SDS011;9495;51.210;2.934;2024-01-30T01:09:32;15.67;;;12.53;;
18732;SDS011;9495;51.210;2.934;2024-01-30T01:12:01;18.10;;;11.63;;
18732;SDS011;9495;51.210;2.934;2024-01-30T01:14:30;16.87;;;13.57;;
18732;SDS011;9495;51.210;2.934;2024-01-30T01:16:58;17.80;;;12.73;;
18732;SDS011;9495;51.210;2.934;2024-01-30T01:19:27;17.80;;;13.63;;
18732;SDS011;9495;51.210;2.934;2024-01-30T01:21:56;16.80;;;12.63;;
18732;SDS011;9495;51.210;2.934;2024-01-30T01:24:26;15.57;;;13.17;;
18732;SDS011;9495;51.210;2.934;2024-01-30T01:26:55;19.27;;;13.23;;
18732;SDS011;9495;51.210;2.934;2024-01-30T01:29:23;16.63;;;12.57;;
18732;SDS011;9495;51.210;2.934;2024-01-30T01:31:55;18.60;;;12.63;;
18732;SDS011;9495;51.210;2.934;2024-01-30T01:34:24;18.47;;;13.47;;
18732;SDS011;9495;51.210;2.934;2024-01-30T01:36:56;16.40;;;12.07;;
18732;SDS011;9495;51.210;2.934;2024-01-30T01:39:26;17.40;;;11.93;;
18732;SDS011;9495;51.210;2.934;2024-01-30T01:41:55;17.67;;;12.87;;
18732;SDS011;9495;51.210;2.934;2024-01-30T01:44:24;18.83;;;12.70;;
18732;SDS011;9495;51.210;2.934;2024-01-30T01:46:52;17.63;;;12.87;;
18732;SDS011;9495;51.210;2.934;2024-01-30T01:49:22;15.90;;;12.03;;
18732;SDS011;9495;51.210;2.934;2024-01-30T01:51:54;18.73;;;13.40;;
18732;SDS011;9495;51.210;2.934;2024-01-30T01:54:24;15.47;;;12.93;;
18732;SDS011;9495;51.210;2.934;2024-01-30T01:56:55;18.07;;;13.37;;
18732;SDS011;9495;51.210;2.934;2024-01-30T01:59:24;16.07;;;12.80;;
18732;SDS011;9495;51.210;2.934;2024-01-30T02:01:54;18.93;;;13.13;;
18732;SDS011;9495;51.210;2.934;2024-01-30T02:04:24;16.97;;;12.80;;
18732;SDS011;9495;51.210;2.934;2024-01-30T02:06:53;14.80;;;13.13;;
18732;SDS011;9495;51.210;2.934;2024-01-30T02:09:21;17.73;;;13.70;;
18732;SDS011;9495;51.210;2.934;2024-01-30T02:11:51;22.50;;;12.73;;
18732;SDS011;9495;51.210;2.934;2024-01-30T02:14:20;14.93;;;12.30;;
18732;SDS011;9495;51.210;2.934;2024-01-30T02:16:49;19.00;;;12.83;;
18732;SDS011;9495;51.210;2.934;2024-01-30T02:19:17;18.70;;;13.60;;
18732;SDS011;9495;51.210;2.934;2024-01-30T02:21:47;20.60;;;14.63;;
18732;SDS011;9495;51.210;2.934;2024-01-30T02:24:17;24.17;;;13.77;;
18732;SDS011;9495;51.210;2.934;2024-01-30T02:26:45;23.80;;;14.37;;
18732;SDS011;9495;51.210;2.934;2024-01-30T02:29:14;17.53;;;13.93;;
18732;SDS011;9495;51.210;2.934;2024-01-30T02:31:43;19.77;;;13.87;;
18732;SDS011;9495;51.210;2.934;2024-01-30T02:34:12;19.63;;;13.63;;
18732;SDS011;9495;51.210;2.934;2024-01-30T02:36:42;18.57;;;12.97;;
18732;SDS011;9495;51.210;2.934;2024-01-30T02:39:11;21.03;;;13.37;;
18732;SDS011;9495;51.210;2.934;2024-01-30T02:41:40;17.07;;;12.43;;
18732;SDS011;9495;51.210;2.934;2024-01-30T02:44:08;18.47;;;12.40;;
18732;SDS011;9495;51.210;2.934;2024-01-30T02:46:37;16.70;;;11.70;;
18732;SDS011;9495;51.210;2.934;2024-01-30T02:49:05;16.40;;;12.37;;
18732;SDS011;9495;51.210;2.934;2024-01-30T02:51:34;16.83;;;12.07;;
18732;SDS011;9495;51.210;2.934;2024-01-30T02:54:02;17.47;;;11.07;;
18732;SDS011;9495;51.210;2.934;2024-01-30T02:56:32;16.17;;;12.03;;
18732;SDS011;9495;51.210;2.934;2024-01-30T02:59:00;16.70;;;12.10;;
18732;SDS011;9495;51.210;2.934;2024-01-30T03:01:29;22.93;;;11.80;;
18732;SDS011;9495;51.210;2.934;2024-01-30T03:03:58;18.10;;;12.27;;
18732;SDS011;9495;51.210;2.934;2024-01-30T03:06:27;16.23;;;11.63;;
18732;SDS011;9495;51.210;2.934;2024-01-30T03:08:56;20.63;;;13.13;;
18732;SDS011;9495;51.210;2.934;2024-01-30T03:11:24;15.67;;;12.73;;
18732;SDS011;9495;51.210;2.934;2024-01-30T03:13:54;18.27;;;12.23;;
18732;SDS011;9495;51.210;2.934;2024-01-30T03:16:23;16.67;;;12.67;;
18732;SDS011;9495;51.210;2.934;2024-01-30T03:18:51;19.17;;;12.37;;
18732;SDS011;9495;51.210;2.934;2024-01-30T03:21:20;19.23;;;13.70;;
18732;SDS011;9495;51.210;2.934;2024-01-30T03:23:49;16.67;;;11.97;;
18732;SDS011;9495;51.210;2.934;2024-01-30T03:26:17;19.47;;;12.03;;
18732;SDS011;9495;51.210;2.934;2024-01-30T03:28:46;17.27;;;10.70;;
18732;SDS011;9495;51.210;2.934;2024-01-30T03:31:15;17.47;;;11.90;;
18732;SDS011;9495;51.210;2.934;2024-01-30T03:33:44;14.93;;;10.80;;
18732;SDS011;9495;51.210;2.934;2024-01-30T03:36:15;15.10;;;11.33;;
18732;SDS011;9495;51.210;2.934;2024-01-30T03:38:43;16.10;;;11.40;;
18732;SDS011;9495;51.210;2.934;2024-01-30T03:41:12;16.10;;;11.33;;
18732;SDS011;9495;51.210;2.934;2024-01-30T03:43:41;16.43;;;11.47;;
18732;SDS011;9495;51.210;2.934;2024-01-30T03:46:11;18.70;;;11.97;;
18732;SDS011;9495;51.210;2.934;2024-01-30T03:48:41;16.90;;;11.17;;
18732;SDS011;9495;51.210;2.934;2024-01-30T03:51:09;13.93;;;11.00;;
18732;SDS011;9495;51.210;2.934;2024-01-30T03:53:42;15.60;;;11.23;;
18732;SDS011;9495;51.210;2.934;2024-01-30T03:56:12;14.93;;;10.80;;
18732;SDS011;9495;51.210;2.934;2024-01-30T03:58:40;14.43;;;10.73;;
18732;SDS011;9495;51.210;2.934;2024-01-30T04:01:12;16.13;;;10.60;;
18732;SDS011;9495;51.210;2.934;2024-01-30T04:03:43;15.50;;;10.93;;
18732;SDS011;9495;51.210;2.934;2024-01-30T04:06:11;14.30;;;10.43;;
18732;SDS011;9495;51.210;2.934;2024-01-30T04:08:40;16.17;;;11.27;;
18732;SDS011;9495;51.210;2.934;2024-01-30T04:11:08;17.33;;;11.70;;
18732;SDS011;9495;51.210;2.934;2024-01-30T04:13:37;18.53;;;12.07;;
18732;SDS011;9495;51.210;2.934;2024-01-30T04:16:06;18.63;;;12.27;;
18732;SDS011;9495;51.210;2.934;2024-01-30T04:18:35;16.17;;;11.50;;
18732;SDS011;9495;51.210;2.934;2024-01-30T04:21:04;17.53;;;11.03;;
18732;SDS011;9495;51.210;2.934;2024-01-30T04:23:33;15.63;;;11.03;;
18732;SDS011;9495;51.210;2.934;2024-01-30T04:26:02;16.53;;;10.83;;
18732;SDS011;9495;51.210;2.934;2024-01-30T04:28:30;20.37;;;10.60;;
18732;SDS011;9495;51.210;2.934;2024-01-30T04:30:59;18.67;;;11.30;;
18732;SDS011;9495;51.210;2.934;2024-01-30T04:33:27;19.43;;;11.30;;
18732;SDS011;9495;51.210;2.934;2024-01-30T04:35:56;16.80;;;10.77;;
18732;SDS011;9495;51.210;2.934;2024-01-30T04:38:26;15.67;;;10.43;;
18732;SDS011;9495;51.210;2.934;2024-01-30T04:40:54;16.53;;;10.77;;
18732;SDS011;9495;51.210;2.934;2024-01-30T04:43:23;16.03;;;10.43;;
18732;SDS011;9495;51.210;2.934;2024-01-30T04:45:52;15.33;;;9.47;;
18732;SDS011;9495;51.210;2.934;2024-01-30T04:48:21;15.60;;;10.10;;
18732;SDS011;9495;51.210;2.934;2024-01-30T04:50:50;20.10;;;10.50;;
18732;SDS011;9495;51.210;2.934;2024-01-30T04:53:18;16.57;;;9.93;;
18732;SDS011;9495;51.210;2.934;2024-01-30T04:55:48;18.13;;;10.60;;
18732;SDS011;9495;51.210;2.934;2024-01-30T04:58:16;16.03;;;10.53;;
18732;SDS011;9495;51.210;2.934;2024-01-30T05:00:45;14.93;;;9.23;;
18732;SDS011;9495;51.210;2.934;2024-01-30T05:03:18;15.40;;;9.77;;
18732;SDS011;9495;51.210;2.934;2024-01-30T05:05:49;18.30;;;9.50;;
18732;SDS011;9495;51.210;2.934;2024-01-30T05:08:17;14.13;;;9.70;;
18732;SDS011;9495;51.210;2.934;2024-01-30T05:10:46;18.10;;;9.37;;
18732;SDS011;9495;51.210;2.934;2024-01-30T05:13:15;18.03;;;10.00;;
18732;SDS011;9495;51.210;2.934;2024-01-30T05:15:44;15.87;;;9.90;;
18732;SDS011;9495;51.210;2.934;2024-01-30T05:18:13;18.27;;;9.93;;
18732;SDS011;9495;51.210;2.934;2024-01-30T05:20:42;15.87;;;8.97;;
18732;SDS011;9495;51.210;2.934;2024-01-30T05:23:10;17.03;;;8.93;;
18732;SDS011;9495;51.210;2.934;2024-01-30T05:25:38;16.47;;;9.73;;
18732;SDS011;9495;51.210;2.934;2024-01-30T05:28:08;18.20;;;10.20;;
18732;SDS011;9495;51.210;2.934;2024-01-30T05:30:37;16.43;;;10.37;;
18732;SDS011;9495;51.210;2.934;2024-01-30T05:33:06;12.93;;;9.40;;
18732;SDS011;9495;51.210;2.934;2024-01-30T05:35:34;15.33;;;9.50;;
18732;SDS011;9495;51.210;2.934;2024-01-30T05:38:03;18.97;;;9.87;;
18732;SDS011;9495;51.210;2.934;2024-01-30T05:40:31;21.80;;;10.47;;
18732;SDS011;9495;51.210;2.934;2024-01-30T05:43:00;16.53;;;9.17;;
18732;SDS011;9495;51.210;2.934;2024-01-30T05:45:31;16.17;;;9.50;;
18732;SDS011;9495;51.210;2.934;2024-01-30T05:47:59;19.37;;;10.13;;
18732;SDS011;9495;51.210;2.934;2024-01-30T05:50:28;16.53;;;9.70;;
18732;SDS011;9495;51.210;2.934;2024-01-30T05:52:56;15.50;;;9.43;;
18732;SDS011;9495;51.210;2.934;2024-01-30T05:55:25;16.30;;;10.07;;
18732;SDS011;9495;51.210;2.934;2024-01-30T05:57:54;20.17;;;9.90;;
18732;SDS011;9495;51.210;2.934;2024-01-30T06:00:22;15.03;;;10.73;;
18732;SDS011;9495;51.210;2.934;2024-01-30T06:02:52;13.67;;;9.80;;
18732;SDS011;9495;51.210;2.934;2024-01-30T06:05:21;19.37;;;9.33;;
18732;SDS011;9495;51.210;2.934;2024-01-30T06:07:49;19.37;;;9.77;;
18732;SDS011;9495;51.210;2.934;2024-01-30T06:10:18;18.30;;;8.60;;
18732;SDS011;9495;51.210;2.934;2024-01-30T06:12:46;14.77;;;9.20;;
18732;SDS011;9495;51.210;2.934;2024-01-30T06:15:15;18.20;;;10.07;;
18732;SDS011;9495;51.210;2.934;2024-01-30T06:17:44;14.33;;;9.43;;
18732;SDS011;9495;51.210;2.934;2024-01-30T06:20:14;15.67;;;10.30;;
18732;SDS011;9495;51.210;2.934;2024-01-30T06:22:43;17.37;;;9.87;;
18732;SDS011;9495;51.210;2.934;2024-01-30T06:25:12;14.60;;;9.53;;
18732;SDS011;9495;51.210;2.934;2024-01-30T06:27:40;14.00;;;9.80;;
18732;SDS011;9495;51.210;2.934;2024-01-30T06:30:09;18.40;;;9.70;;
18732;SDS011;9495;51.210;2.934;2024-01-30T06:32:38;16.27;;;10.10;;
18732;SDS011;9495;51.210;2.934;2024-01-30T06:35:07;14.40;;;10.47;;
18732;SDS011;9495;51.210;2.934;2024-01-30T06:37:38;18.57;;;10.23;;
18732;SDS011;9495;51.210;2.934;2024-01-30T06:40:06;17.17;;;9.67;;
18732;SDS011;9495;51.210;2.934;2024-01-30T06:42:36;19.23;;;10.10;;
18732;SDS011;9495;51.210;2.934;2024-01-30T06:45:04;14.77;;;10.47;;
18732;SDS011;9495;51.210;2.934;2024-01-30T06:47:34;13.77;;;10.37;;
18732;SDS011;9495;51.210;2.934;2024-01-30T06:50:03;20.13;;;10.00;;
18732;SDS011;9495;51.210;2.934;2024-01-30T06:52:31;12.30;;;9.53;;
18732;SDS011;9495;51.210;2.934;2024-01-30T06:55:01;14.60;;;10.10;;
18732;SDS011;9495;51.210;2.934;2024-01-30T06:57:30;14.87;;;10.10;;
18732;SDS011;9495;51.210;2.934;2024-01-30T06:59:58;18.70;;;10.80;;
18732;SDS011;9495;51.210;2.934;2024-01-30T07:02:27;14.37;;;9.27;;
18732;SDS011;9495;51.210;2.934;2024-01-30T07:04:56;15.23;;;10.80;;
18732;SDS011;9495;51.210;2.934;2024-01-30T07:07:24;15.40;;;10.07;;
18732;SDS011;9495;51.210;2.934;2024-01-30T07:09:53;22.57;;;10.63;;
18732;SDS011;9495;51.210;2.934;2024-01-30T07:12:24;17.37;;;9.97;;
18732;SDS011;9495;51.210;2.934;2024-01-30T07:14:53;22.60;;;10.60;;
18732;SDS011;9495;51.210;2.934;2024-01-30T07:17:23;15.00;;;9.70;;
18732;SDS011;9495;51.210;2.934;2024-01-30T07:19:51;23.10;;;9.20;;
18732;SDS011;9495;51.210;2.934;2024-01-30T07:22:20;18.43;;;7.63;;
18732;SDS011;9495;51.210;2.934;2024-01-30T07:24:48;16.67;;;6.57;;
18732;SDS011;9495;51.210;2.934;2024-01-30T07:27:18;22.17;;;6.00;;
18732;SDS011;9495;51.210;2.934;2024-01-30T07:29:49;22.87;;;6.10;;
18732;SDS011;9495;51.210;2.934;2024-01-30T07:32:18;13.73;;;4.60;;
18732;SDS011;9495;51.210;2.934;2024-01-30T07:34:46;16.87;;;4.80;;
18732;SDS011;9495;51.210;2.934;2024-01-30T07:37:32;15.47;;;4.30;;
18732;SDS011;9495;51.210;2.934;2024-01-30T07:40:01;15.53;;;3.83;;
18732;SDS011;9495;51.210;2.934;2024-01-30T07:42:31;14.43;;;3.67;;
18732;SDS011;9495;51.210;2.934;2024-01-30T07:45:01;12.20;;;2.73;;
18732;SDS011;9495;51.210;2.934;2024-01-30T07:47:30;12.43;;;3.40;;
18732;SDS011;9495;51.210;2.934;2024-01-30T07:49:59;11.73;;;3.40;;
18732;SDS011;9495;51.210;2.934;2024-01-30T07:52:28;13.53;;;3.00;;
18732;SDS011;9495;51.210;2.934;2024-01-30T07:54:57;14.60;;;3.03;;
18732;SDS011;9495;51.210;2.934;2024-01-30T07:57:25;11.20;;;3.10;;
18732;SDS011;9495;51.210;2.934;2024-01-30T07:59:54;15.97;;;2.73;;
18732;SDS011;9495;51.210;2.934;2024-01-30T08:02:25;10.10;;;2.05;;
18732;SDS011;9495;51.210;2.934;2024-01-30T08:04:54;8.00;;;2.00;;
18732;SDS011;9495;51.210;2.934;2024-01-30T08:07:22;8.47;;;2.33;;
18732;SDS011;9495;51.210;2.934;2024-01-30T08:09:51;8.13;;;2.00;;
18732;SDS011;9495;51.210;2.934;2024-01-30T08:12:19;7.10;;;1.77;;
18732;SDS011;9495;51.210;2.934;2024-01-30T08:14:48;8.47;;;2.37;;
18732;SDS011;9495;51.210;2.934;2024-01-30T08:17:17;12.33;;;1.73;;
18732;SDS011;9495;51.210;2.934;2024-01-30T08:19:47;4.83;;;1.50;;
18732;SDS011;9495;51.210;2.934;2024-01-30T08:22:16;7.20;;;2.00;;
18732;SDS011;9495;51.210;2.934;2024-01-30T08:24:44;10.13;;;1.83;;
18732;SDS011;9495;51.210;2.934;2024-01-30T08:27:13;7.17;;;1.77;;
18732;SDS011;9495;51.210;2.934;2024-01-30T08:29:42;6.00;;;1.67;;
18732;SDS011;9495;51.210;2.934;2024-01-30T08:32:10;4.53;;;1.33;;
18732;SDS011;9495;51.210;2.934;2024-01-30T08:34:39;7.37;;;1.43;;
18732;SDS011;9495;51.210;2.934;2024-01-30T08:37:09;7.90;;;1.57;;
18732;SDS011;9495;51.210;2.934;2024-01-30T08:39:38;5.13;;;1.33;;
18732;SDS011;9495;51.210;2.934;2024-01-30T08:42:06;5.10;;;1.33;;
18732;SDS011;9495;51.210;2.934;2024-01-30T08:44:35;6.93;;;1.47;;
18732;SDS011;9495;51.210;2.934;2024-01-30T08:47:05;4.47;;;1.13;;
18732;SDS011;9495;51.210;2.934;2024-01-30T08:49:33;6.93;;;1.77;;
18732;SDS011;9495;51.210;2.934;2024-01-30T08:52:02;5.77;;;1.50;;
18732;SDS011;9495;51.210;2.934;2024-01-30T08:54:32;4.60;;;1.33;;
18732;SDS011;9495;51.210;2.934;2024-01-30T08:57:01;5.97;;;1.10;;
18732;SDS011;9495;51.210;2.934;2024-01-30T08:59:30;6.13;;;1.43;;
18732;SDS011;9495;51.210;2.934;2024-01-30T09:02:00;5.73;;;1.40;;
18732;SDS011;9495;51.210;2.934;2024-01-30T09:04:38;7.07;;;1.10;;
18732;SDS011;9495;51.210;2.934;2024-01-30T09:07:08;3.23;;;1.00;;
18732;SDS011;9495;51.210;2.934;2024-01-30T09:09:39;3.27;;;0.80;;
18732;SDS011;9495;51.210;2.934;2024-01-30T09:12:08;4.10;;;1.00;;
18732;SDS011;9495;51.210;2.934;2024-01-30T09:14:39;3.03;;;0.90;;
18732;SDS011;9495;51.210;2.934;2024-01-30T09:17:08;3.67;;;1.30;;
18732;SDS011;9495;51.210;2.934;2024-01-30T09:19:37;8.13;;;1.20;;
18732;SDS011;9495;51.210;2.934;2024-01-30T09:22:06;4.27;;;1.13;;
18732;SDS011;9495;51.210;2.934;2024-01-30T09:24:34;4.97;;;1.00;;
18732;SDS011;9495;51.210;2.934;2024-01-30T09:27:04;4.43;;;1.20;;
18732;SDS011;9495;51.210;2.934;2024-01-30T09:29:33;2.97;;;1.00;;
18732;SDS011;9495;51.210;2.934;2024-01-30T09:32:04;4.10;;;1.00;;
18732;SDS011;9495;51.210;2.934;2024-01-30T09:34:33;7.37;;;1.53;;
18732;SDS011;9495;51.210;2.934;2024-01-30T09:37:02;3.63;;;0.97;;
18732;SDS011;9495;51.210;2.934;2024-01-30T09:39:31;5.47;;;1.50;;
18732;SDS011;9495;51.210;2.934;2024-01-30T09:42:01;5.87;;;1.33;;
18732;SDS011;9495;51.210;2.934;2024-01-30T09:44:39;6.50;;;1.10;;
18732;SDS011;9495;51.210;2.934;2024-01-30T09:47:11;4.60;;;1.20;;
18732;SDS011;9495;51.210;2.934;2024-01-30T09:49:40;6.37;;;1.50;;
18732;SDS011;9495;51.210;2.934;2024-01-30T09:52:11;7.17;;;1.43;;
18732;SDS011;9495;51.210;2.934;2024-01-30T09:54:40;8.97;;;2.17;;
18732;SDS011;9495;51.210;2.934;2024-01-30T09:57:12;5.87;;;1.50;;
18732;SDS011;9495;51.210;2.934;2024-01-30T09:59:41;9.17;;;1.50;;
18732;SDS011;9495;51.210;2.934;2024-01-30T10:02:10;5.37;;;1.47;;
18732;SDS011;9495;51.210;2.934;2024-01-30T10:04:39;11.07;;;2.53;;
18732;SDS011;9495;51.210;2.934;2024-01-30T10:07:09;14.33;;;3.30;;
18732;SDS011;9495;51.210;2.934;2024-01-30T10:09:39;13.73;;;2.80;;
18732;SDS011;9495;51.210;2.934;2024-01-30T10:12:08;14.27;;;2.43;;
18732;SDS011;9495;51.210;2.934;2024-01-30T10:14:39;9.60;;;2.57;;
18732;SDS011;9495;51.210;2.934;2024-01-30T10:17:08;12.07;;;2.40;;
18732;SDS011;9495;51.210;2.934;2024-01-30T10:19:50;11.60;;;2.10;;
18732;SDS011;9495;51.210;2.934;2024-01-30T10:22:19;13.80;;;2.30;;
18732;SDS011;9495;51.210;2.934;2024-01-30T10:24:48;11.90;;;2.37;;
18732;SDS011;9495;51.210;2.934;2024-01-30T10:27:17;16.43;;;3.03;;
18732;SDS011;9495;51.210;2.934;2024-01-30T10:29:54;12.87;;;2.30;;
18732;SDS011;9495;51.210;2.934;2024-01-30T10:32:23;14.30;;;2.53;;
18732;SDS011;9495;51.210;2.934;2024-01-30T10:34:53;12.63;;;2.43;;
18732;SDS011;9495;51.210;2.934;2024-01-30T10:37:22;11.97;;;1.90;;
18732;SDS011;9495;51.210;2.934;2024-01-30T10:39:53;9.43;;;2.03;;
18732;SDS011;9495;51.210;2.934;2024-01-30T10:42:25;8.47;;;1.63;;
18732;SDS011;9495;51.210;2.934;2024-01-30T10:45:00;8.60;;;1.80;;
18732;SDS011;9495;51.210;2.934;2024-01-30T10:47:35;5.97;;;1.67;;
18732;SDS011;9495;51.210;2.934;2024-01-30T10:50:05;15.53;;;2.90;;
18732;SDS011;9495;51.210;2.934;2024-01-30T10:52:35;17.77;;;2.70;;
18732;SDS011;9495;51.210;2.934;2024-01-30T10:55:04;18.93;;;3.47;;
18732;SDS011;9495;51.210;2.934;2024-01-30T10:57:34;15.77;;;2.90;;
18732;SDS011;9495;51.210;2.934;2024-01-30T11:00:06;17.80;;;3.20;;
18732;SDS011;9495;51.210;2.934;2024-01-30T11:02:38;19.63;;;2.93;;
18732;SDS011;9495;51.210;2.934;2024-01-30T11:05:08;15.50;;;3.00;;
18732;SDS011;9495;51.210;2.934;2024-01-30T11:07:38;15.87;;;3.70;;
18732;SDS011;9495;51.210;2.934;2024-01-30T11:10:08;12.77;;;2.63;;
18732;SDS011;9495;51.210;2.934;2024-01-30T11:12:40;19.03;;;2.97;;
18732;SDS011;9495;51.210;2.934;2024-01-30T11:15:13;12.37;;;2.63;;
18732;SDS011;9495;51.210;2.934;2024-01-30T11:17:42;13.40;;;2.27;;
18732;SDS011;9495;51.210;2.934;2024-01-30T11:20:12;9.17;;;2.13;;
18732;SDS011;9495;51.210;2.934;2024-01-30T11:22:42;11.83;;;2.40;;
18732;SDS011;9495;51.210;2.934;2024-01-30T11:25:13;12.13;;;2.37;;
18732;SDS011;9495;51.210;2.934;2024-01-30T11:27:42;8.63;;;2.03;;
18732;SDS011;9495;51.210;2.934;2024-01-30T11:30:20;11.17;;;2.50;;
18732;SDS011;9495;51.210;2.934;2024-01-30T11:33:02;10.70;;;2.23;;
18732;SDS011;9495;51.210;2.934;2024-01-30T11:35:33;11.80;;;2.40;;
18732;SDS011;9495;51.210;2.934;2024-01-30T11:38:04;11.90;;;2.53;;
18732;SDS011;9495;51.210;2.934;2024-01-30T11:40:34;10.40;;;2.47;;
18732;SDS011;9495;51.210;2.934;2024-01-30T11:43:05;10.03;;;2.50;;
18732;SDS011;9495;51.210;2.934;2024-01-30T11:45:36;10.07;;;2.93;;
18732;SDS011;9495;51.210;2.934;2024-01-30T11:48:06;7.53;;;2.40;;
18732;SDS011;9495;51.210;2.934;2024-01-30T11:50:37;9.03;;;2.40;;
18732;SDS011;9495;51.210;2.934;2024-01-30T11:53:07;9.57;;;2.50;;
18732;SDS011;9495;51.210;2.934;2024-01-30T11:55:35;11.57;;;3.30;;
18732;SDS011;9495;51.210;2.934;2024-01-30T11:58:04;13.07;;;2.80;;
18732;SDS011;9495;51.210;2.934;2024-01-30T12:00:33;9.73;;;2.77;;
18732;SDS011;9495;51.210;2.934;2024-01-30T12:03:04;10.70;;;2.87;;
18732;SDS011;9495;51.210;2.934;2024-01-30T12:05:33;11.97;;;2.67;;
18732;SDS011;9495;51.210;2.934;2024-01-30T12:08:03;9.40;;;1.97;;
18732;SDS011;9495;51.210;2.934;2024-01-30T12:10:32;12.60;;;2.63;;
18732;SDS011;9495;51.210;2.934;2024-01-30T12:13:01;10.27;;;2.20;;
18732;SDS011;9495;51.210;2.934;2024-01-30T12:15:30;12.17;;;2.40;;
18732;SDS011;9495;51.210;2.934;2024-01-30T12:18:06;9.47;;;2.37;;
18732;SDS011;9495;51.210;2.934;2024-01-30T12:20:35;8.67;;;2.20;;
18732;SDS011;9495;51.210;2.934;2024-01-30T12:23:04;10.73;;;2.13;;
18732;SDS011;9495;51.210;2.934;2024-01-30T12:25:33;10.10;;;2.37;;
18732;SDS011;9495;51.210;2.934;2024-01-30T12:28:01;9.20;;;2.30;;
18732;SDS011;9495;51.210;2.934;2024-01-30T12:30:30;5.80;;;1.83;;
18732;SDS011;9495;51.210;2.934;2024-01-30T12:32:59;12.23;;;2.30;;
18732;SDS011;9495;51.210;2.934;2024-01-30T12:35:32;9.83;;;2.13;;
18732;SDS011;9495;51.210;2.934;2024-01-30T12:38:07;12.43;;;2.20;;
18732;SDS011;9495;51.210;2.934;2024-01-30T12:40:35;10.90;;;2.27;;
18732;SDS011;9495;51.210;2.934;2024-01-30T12:43:07;15.90;;;2.00;;
18732;SDS011;9495;51.210;2.934;2024-01-30T12:45:36;9.73;;;1.83;;
18732;SDS011;9495;51.210;2.934;2024-01-30T12:48:04;6.57;;;1.73;;
18732;SDS011;9495;51.210;2.934;2024-01-30T12:50:35;7.97;;;1.87;;
18732;SDS011;9495;51.210;2.934;2024-01-30T12:53:03;8.10;;;1.83;;
18732;SDS011;9495;51.210;2.934;2024-01-30T12:55:32;11.13;;;2.40;;
18732;SDS011;9495;51.210;2.934;2024-01-30T12:58:01;8.77;;;2.03;;
18732;SDS011;9495;51.210;2.934;2024-01-30T13:00:29;8.30;;;1.80;;
18732;SDS011;9495;51.210;2.934;2024-01-30T13:02:58;13.43;;;2.50;;
18732;SDS011;9495;51.210;2.934;2024-01-30T13:05:27;14.33;;;3.00;;
18732;SDS011;9495;51.210;2.934;2024-01-30T13:07:57;10.37;;;2.20;;
18732;SDS011;9495;51.210;2.934;2024-01-30T13:10:25;7.33;;;2.43;;
18732;SDS011;9495;51.210;2.934;2024-01-30T13:12:54;6.73;;;2.30;;
18732;SDS011;9495;51.210;2.934;2024-01-30T13:15:22;12.57;;;2.97;;
18732;SDS011;9495;51.210;2.934;2024-01-30T13:17:51;6.83;;;2.27;;
18732;SDS011;9495;51.210;2.934;2024-01-30T13:20:21;9.60;;;2.70;;
18732;SDS011;9495;51.210;2.934;2024-01-30T13:22:49;8.77;;;2.63;;
18732;SDS011;9495;51.210;2.934;2024-01-30T13:25:19;7.70;;;2.40;;
18732;SDS011;9495;51.210;2.934;2024-01-30T13:27:48;7.30;;;2.10;;
18732;SDS011;9495;51.210;2.934;2024-01-30T13:30:16;8.60;;;2.50;;
18732;SDS011;9495;51.210;2.934;2024-01-30T13:32:45;11.67;;;2.63;;
18732;SDS011;9495;51.210;2.934;2024-01-30T13:35:13;15.93;;;2.50;;
18732;SDS011;9495;51.210;2.934;2024-01-30T13:37:42;9.13;;;2.63;;
18732;SDS011;9495;51.210;2.934;2024-01-30T13:40:10;8.43;;;2.27;;
18732;SDS011;9495;51.210;2.934;2024-01-30T13:42:42;9.93;;;2.73;;
18732;SDS011;9495;51.210;2.934;2024-01-30T13:45:11;9.93;;;2.53;;
18732;SDS011;9495;51.210;2.934;2024-01-30T13:47:40;4.60;;;2.07;;
18732;SDS011;9495;51.210;2.934;2024-01-30T13:50:08;7.50;;;2.60;;
18732;SDS011;9495;51.210;2.934;2024-01-30T13:52:41;12.83;;;3.07;;
18732;SDS011;9495;51.210;2.934;2024-01-30T13:55:12;7.50;;;2.67;;
18732;SDS011;9495;51.210;2.934;2024-01-30T13:57:40;7.73;;;2.70;;
18732;SDS011;9495;51.210;2.934;2024-01-30T14:00:12;9.23;;;2.53;;
18732;SDS011;9495;51.210;2.934;2024-01-30T14:02:43;7.13;;;2.73;;
18732;SDS011;9495;51.210;2.934;2024-01-30T14:05:11;8.07;;;2.97;;
18732;SDS011;9495;51.210;2.934;2024-01-30T14:07:42;8.33;;;2.90;;
18732;SDS011;9495;51.210;2.934;2024-01-30T14:10:11;6.57;;;3.30;;
18732;SDS011;9495;51.210;2.934;2024-01-30T14:12:43;7.60;;;2.80;;
18732;SDS011;9495;51.210;2.934;2024-01-30T14:15:12;5.30;;;2.43;;
18732;SDS011;9495;51.210;2.934;2024-01-30T14:17:53;11.93;;;3.27;;
18732;SDS011;9495;51.210;2.934;2024-01-30T14:20:23;13.03;;;3.27;;
18732;SDS011;9495;51.210;2.934;2024-01-30T14:22:51;7.67;;;3.07;;
18732;SDS011;9495;51.210;2.934;2024-01-30T14:25:23;9.50;;;2.90;;
18732;SDS011;9495;51.210;2.934;2024-01-30T14:27:53;7.30;;;2.70;;
18732;SDS011;9495;51.210;2.934;2024-01-30T14:30:21;6.47;;;2.90;;
18732;SDS011;9495;51.210;2.934;2024-01-30T14:32:50;10.33;;;2.83;;
18732;SDS011;9495;51.210;2.934;2024-01-30T14:35:19;7.03;;;2.97;;
18732;SDS011;9495;51.210;2.934;2024-01-30T14:37:48;5.87;;;2.90;;
18732;SDS011;9495;51.210;2.934;2024-01-30T14:40:17;5.97;;;3.30;;
18732;SDS011;9495;51.210;2.934;2024-01-30T14:42:46;12.20;;;3.20;;
18732;SDS011;9495;51.210;2.934;2024-01-30T14:45:16;10.00;;;2.90;;
18732;SDS011;9495;51.210;2.934;2024-01-30T14:47:45;6.37;;;2.50;;
18732;SDS011;9495;51.210;2.934;2024-01-30T14:50:14;13.33;;;3.23;;
18732;SDS011;9495;51.210;2.934;2024-01-30T14:52:43;10.27;;;3.37;;
18732;SDS011;9495;51.210;2.934;2024-01-30T14:55:12;8.07;;;2.50;;
18732;SDS011;9495;51.210;2.934;2024-01-30T14:57:41;5.83;;;2.70;;
18732;SDS011;9495;51.210;2.934;2024-01-30T15:00:12;10.90;;;2.90;;